sensor_id;sensor_type;location;lat;lon;timestamp;pressure;altitude;pressure_sealevel;temperature
45850;BMP180;10739;52.198;20.908;2022-07-15T00:00:17;99989.00;;;21.10
45850;BMP180;10739;52.198;20.908;2022-07-15T00:03:03;99993.00;;;21.30
45850;BMP180;10739;52.198;20.908;2022-07-15T00:05:50;99993.00;;;21.60
45850;BMP180;10739;52.198;20.908;2022-07-15T00:08:36;99994.00;;;21.30
45850;BMP180;10739;52.198;20.908;2022-07-15T00:11:22;99993.00;;;21.10
45850;BMP180;10739;52.198;20.908;2022-07-15T00:14:08;99997.00;;;21.10
45850;BMP180;10739;52.198;20.908;2022-07-15T00:16:55;100002.00;;;21.20
45850;BMP180;10739;52.198;20.908;2022-07-15T00:19:41;99992.00;;;21.20
45850;BMP180;10739;52.198;20.908;2022-07-15T00:22:27;99999.00;;;21.10
45850;BMP180;10739;52.198;20.908;2022-07-15T00:25:15;99996.00;;;21.30
45850;BMP180;10739;52.198;20.908;2022-07-15T00:28:06;100004.00;;;21.30
45850;BMP180;10739;52.198;20.908;2022-07-15T00:30:54;100002.00;;;21.20
45850;BMP180;10739;52.198;20.908;2022-07-15T00:33:41;100008.00;;;20.90
45850;BMP180;10739;52.198;20.908;2022-07-15T00:36:27;100007.00;;;20.90
45850;BMP180;10739;52.198;20.908;2022-07-15T00:39:15;100003.00;;;20.80
45850;BMP180;10739;52.198;20.908;2022-07-15T00:42:03;100005.00;;;20.90
45850;BMP180;10739;52.198;20.908;2022-07-15T00:44:50;100007.00;;;20.90
45850;BMP180;10739;52.198;20.908;2022-07-15T00:47:36;100012.00;;;21.10
45850;BMP180;10739;52.198;20.908;2022-07-15T00:50:27;100003.00;;;21.10
45850;BMP180;10739;52.198;20.908;2022-07-15T00:53:19;100008.00;;;21.20
45850;BMP180;10739;52.198;20.908;2022-07-15T00:56:09;100008.00;;;20.90
45850;BMP180;10739;52.198;20.908;2022-07-15T00:58:58;100012.00;;;20.90
45850;BMP180;10739;52.198;20.908;2022-07-15T01:01:46;100013.00;;;21.20
45850;BMP180;10739;52.198;20.908;2022-07-15T01:04:34;100001.00;;;21.40
45850;BMP180;10739;52.198;20.908;2022-07-15T01:07:20;100001.00;;;21.30
45850;BMP180;10739;52.198;20.908;2022-07-15T01:10:07;99999.00;;;21.20
45850;BMP180;10739;52.198;20.908;2022-07-15T01:12:54;99992.00;;;21.40
45850;BMP180;10739;52.198;20.908;2022-07-15T01:15:41;99996.00;;;21.30
45850;BMP180;10739;52.198;20.908;2022-07-15T01:18:27;99997.00;;;21.30
45850;BMP180;10739;52.198;20.908;2022-07-15T01:21:14;100005.00;;;21.20
45850;BMP180;10739;52.198;20.908;2022-07-15T01:24:01;99995.00;;;21.30
45850;BMP180;10739;52.198;20.908;2022-07-15T01:26:47;99998.00;;;21.20
45850;BMP180;10739;52.198;20.908;2022-07-15T01:29:33;100003.00;;;21.00
45850;BMP180;10739;52.198;20.908;2022-07-15T01:32:20;99995.00;;;21.10
45850;BMP180;10739;52.198;20.908;2022-07-15T01:35:07;99993.00;;;20.90
45850;BMP180;10739;52.198;20.908;2022-07-15T01:37:54;99984.00;;;20.80
45850;BMP180;10739;52.198;20.908;2022-07-15T01:40:40;99995.00;;;20.60
45850;BMP180;10739;52.198;20.908;2022-07-15T01:43:26;100003.00;;;20.50
45850;BMP180;10739;52.198;20.908;2022-07-15T01:46:12;100001.00;;;20.30
45850;BMP180;10739;52.198;20.908;2022-07-15T01:48:58;99997.00;;;20.20
45850;BMP180;10739;52.198;20.908;2022-07-15T01:52:04;100001.00;;;20.20
45850;BMP180;10739;52.198;20.908;2022-07-15T01:54:51;100001.00;;;19.90
45850;BMP180;10739;52.198;20.908;2022-07-15T01:57:38;99995.00;;;19.90
45850;BMP180;10739;52.198;20.908;2022-07-15T02:00:24;100000.00;;;20.00
45850;BMP180;10739;52.198;20.908;2022-07-15T02:03:11;100011.00;;;19.90
45850;BMP180;10739;52.198;20.908;2022-07-15T02:05:57;100002.00;;;19.90
45850;BMP180;10739;52.198;20.908;2022-07-15T02:08:43;100009.00;;;19.80
45850;BMP180;10739;52.198;20.908;2022-07-15T02:11:30;100005.00;;;19.70
45850;BMP180;10739;52.198;20.908;2022-07-15T02:14:17;100016.00;;;19.70
45850;BMP180;10739;52.198;20.908;2022-07-15T02:17:03;100012.00;;;19.40
45850;BMP180;10739;52.198;20.908;2022-07-15T02:19:49;100013.00;;;19.40
45850;BMP180;10739;52.198;20.908;2022-07-15T02:22:35;100013.00;;;19.40
45850;BMP180;10739;52.198;20.908;2022-07-15T02:25:30;100005.00;;;19.30
45850;BMP180;10739;52.198;20.908;2022-07-15T02:28:16;100003.00;;;19.40
45850;BMP180;10739;52.198;20.908;2022-07-15T02:31:03;100012.00;;;19.30
45850;BMP180;10739;52.198;20.908;2022-07-15T02:33:50;100012.00;;;19.30
45850;BMP180;10739;52.198;20.908;2022-07-15T02:36:36;100018.00;;;19.20
45850;BMP180;10739;52.198;20.908;2022-07-15T02:39:22;100025.00;;;19.10
45850;BMP180;10739;52.198;20.908;2022-07-15T02:42:08;100023.00;;;19.30
45850;BMP180;10739;52.198;20.908;2022-07-15T02:44:55;100025.00;;;19.30
45850;BMP180;10739;52.198;20.908;2022-07-15T02:47:41;100031.00;;;19.10
45850;BMP180;10739;52.198;20.908;2022-07-15T02:50:28;100030.00;;;19.10
45850;BMP180;10739;52.198;20.908;2022-07-15T02:53:14;100030.00;;;19.10
45850;BMP180;10739;52.198;20.908;2022-07-15T02:56:02;100039.00;;;19.00
45850;BMP180;10739;52.198;20.908;2022-07-15T02:58:49;100037.00;;;19.00
45850;BMP180;10739;52.198;20.908;2022-07-15T03:01:35;100034.00;;;18.90
45850;BMP180;10739;52.198;20.908;2022-07-15T03:04:22;100048.00;;;18.70
45850;BMP180;10739;52.198;20.908;2022-07-15T03:07:08;100035.00;;;18.80
45850;BMP180;10739;52.198;20.908;2022-07-15T03:09:55;100037.00;;;18.70
45850;BMP180;10739;52.198;20.908;2022-07-15T03:12:41;100039.00;;;18.80
45850;BMP180;10739;52.198;20.908;2022-07-15T03:15:28;100038.00;;;18.60
45850;BMP180;10739;52.198;20.908;2022-07-15T03:18:14;100041.00;;;18.60
45850;BMP180;10739;52.198;20.908;2022-07-15T03:21:02;100044.00;;;18.50
45850;BMP180;10739;52.198;20.908;2022-07-15T03:23:48;100046.00;;;18.80
45850;BMP180;10739;52.198;20.908;2022-07-15T03:26:34;100045.00;;;18.70
45850;BMP180;10739;52.198;20.908;2022-07-15T03:29:21;100048.00;;;18.80
45850;BMP180;10739;52.198;20.908;2022-07-15T03:32:07;100052.00;;;18.80
45850;BMP180;10739;52.198;20.908;2022-07-15T03:34:54;100053.00;;;18.80
45850;BMP180;10739;52.198;20.908;2022-07-15T03:37:42;100052.00;;;18.90
45850;BMP180;10739;52.198;20.908;2022-07-15T03:40:29;100041.00;;;18.90
45850;BMP180;10739;52.198;20.908;2022-07-15T03:43:15;100049.00;;;18.70
45850;BMP180;10739;52.198;20.908;2022-07-15T03:46:01;100049.00;;;18.80
45850;BMP180;10739;52.198;20.908;2022-07-15T03:48:47;100053.00;;;18.70
45850;BMP180;10739;52.198;20.908;2022-07-15T03:51:35;100054.00;;;18.40
45850;BMP180;10739;52.198;20.908;2022-07-15T03:54:21;100063.00;;;18.60
45850;BMP180;10739;52.198;20.908;2022-07-15T03:57:08;100059.00;;;18.50
45850;BMP180;10739;52.198;20.908;2022-07-15T03:59:54;100049.00;;;18.80
45850;BMP180;10739;52.198;20.908;2022-07-15T04:02:41;100045.00;;;19.00
45850;BMP180;10739;52.198;20.908;2022-07-15T04:05:27;100032.00;;;18.90
45850;BMP180;10739;52.198;20.908;2022-07-15T04:08:14;100050.00;;;19.10
45850;BMP180;10739;52.198;20.908;2022-07-15T04:11:01;100050.00;;;19.30
45850;BMP180;10739;52.198;20.908;2022-07-15T04:13:47;100046.00;;;19.20
45850;BMP180;10739;52.198;20.908;2022-07-15T04:16:34;100057.00;;;19.20
45850;BMP180;10739;52.198;20.908;2022-07-15T04:19:20;100062.00;;;19.30
45850;BMP180;10739;52.198;20.908;2022-07-15T04:22:06;100058.00;;;19.30
45850;BMP180;10739;52.198;20.908;2022-07-15T04:24:52;100051.00;;;19.60
45850;BMP180;10739;52.198;20.908;2022-07-15T04:27:39;100055.00;;;19.60
45850;BMP180;10739;52.198;20.908;2022-07-15T04:30:25;100061.00;;;19.50
45850;BMP180;10739;52.198;20.908;2022-07-15T04:33:11;100065.00;;;19.70
45850;BMP180;10739;52.198;20.908;2022-07-15T04:35:58;100066.00;;;19.70
45850;BMP180;10739;52.198;20.908;2022-07-15T04:38:44;100066.00;;;19.90
45850;BMP180;10739;52.198;20.908;2022-07-15T04:41:30;100074.00;;;19.90
45850;BMP180;10739;52.198;20.908;2022-07-15T04:44:18;100069.00;;;19.90
45850;BMP180;10739;52.198;20.908;2022-07-15T04:47:04;100064.00;;;20.10
45850;BMP180;10739;52.198;20.908;2022-07-15T04:49:50;100066.00;;;20.40
45850;BMP180;10739;52.198;20.908;2022-07-15T04:52:55;100074.00;;;20.20
45850;BMP180;10739;52.198;20.908;2022-07-15T04:55:41;100078.00;;;20.50
45850;BMP180;10739;52.198;20.908;2022-07-15T04:58:27;100086.00;;;20.60
45850;BMP180;10739;52.198;20.908;2022-07-15T05:01:13;100089.00;;;20.50
45850;BMP180;10739;52.198;20.908;2022-07-15T05:04:00;100090.00;;;20.50
45850;BMP180;10739;52.198;20.908;2022-07-15T05:06:47;100093.00;;;20.10
45850;BMP180;10739;52.198;20.908;2022-07-15T05:09:13;100098.00;;;20.40
45850;BMP180;10739;52.198;20.908;2022-07-15T05:11:40;100093.00;;;20.80
45850;BMP180;10739;52.198;20.908;2022-07-15T05:14:06;100099.00;;;20.90
45850;BMP180;10739;52.198;20.908;2022-07-15T05:16:32;100102.00;;;20.80
45850;BMP180;10739;52.198;20.908;2022-07-15T05:18:58;100102.00;;;20.50
45850;BMP180;10739;52.198;20.908;2022-07-15T05:21:25;100109.00;;;20.80
45850;BMP180;10739;52.198;20.908;2022-07-15T05:23:51;100105.00;;;20.90
45850;BMP180;10739;52.198;20.908;2022-07-15T05:26:17;100105.00;;;21.20
45850;BMP180;10739;52.198;20.908;2022-07-15T05:28:44;100112.00;;;21.10
45850;BMP180;10739;52.198;20.908;2022-07-15T05:31:10;100115.00;;;21.20
45850;BMP180;10739;52.198;20.908;2022-07-15T05:33:37;100121.00;;;21.00
45850;BMP180;10739;52.198;20.908;2022-07-15T05:36:03;100134.00;;;20.70
45850;BMP180;10739;52.198;20.908;2022-07-15T05:38:30;100133.00;;;20.90
45850;BMP180;10739;52.198;20.908;2022-07-15T05:41:04;100133.00;;;21.30
45850;BMP180;10739;52.198;20.908;2022-07-15T05:43:30;100144.00;;;21.20
45850;BMP180;10739;52.198;20.908;2022-07-15T05:45:56;100140.00;;;21.50
45850;BMP180;10739;52.198;20.908;2022-07-15T05:48:23;100136.00;;;21.50
45850;BMP180;10739;52.198;20.908;2022-07-15T05:50:49;100138.00;;;21.30
45850;BMP180;10739;52.198;20.908;2022-07-15T05:53:16;100134.00;;;21.90
45850;BMP180;10739;52.198;20.908;2022-07-15T05:55:42;100152.00;;;21.60
45850;BMP180;10739;52.198;20.908;2022-07-15T05:58:09;100141.00;;;21.90
45850;BMP180;10739;52.198;20.908;2022-07-15T06:00:38;100150.00;;;21.70
45850;BMP180;10739;52.198;20.908;2022-07-15T06:03:05;100156.00;;;21.40
45850;BMP180;10739;52.198;20.908;2022-07-15T06:05:32;100156.00;;;21.90
45850;BMP180;10739;52.198;20.908;2022-07-15T06:07:59;100159.00;;;22.20
45850;BMP180;10739;52.198;20.908;2022-07-15T06:10:25;100165.00;;;21.90
45850;BMP180;10739;52.198;20.908;2022-07-15T06:12:51;100160.00;;;21.40
45850;BMP180;10739;52.198;20.908;2022-07-15T06:15:21;100178.00;;;21.00
45850;BMP180;10739;52.198;20.908;2022-07-15T06:17:48;100170.00;;;20.90
45850;BMP180;10739;52.198;20.908;2022-07-15T06:20:15;100193.00;;;21.00
45850;BMP180;10739;52.198;20.908;2022-07-15T06:22:41;100171.00;;;20.80
45850;BMP180;10739;52.198;20.908;2022-07-15T06:25:08;100179.00;;;21.20
45850;BMP180;10739;52.198;20.908;2022-07-15T06:27:35;100184.00;;;21.40
45850;BMP180;10739;52.198;20.908;2022-07-15T06:30:02;100181.00;;;21.80
45850;BMP180;10739;52.198;20.908;2022-07-15T06:32:28;100179.00;;;21.80
45850;BMP180;10739;52.198;20.908;2022-07-15T06:34:54;100185.00;;;22.20
45850;BMP180;10739;52.198;20.908;2022-07-15T06:37:20;100185.00;;;22.30
45850;BMP180;10739;52.198;20.908;2022-07-15T06:39:47;100190.00;;;21.90
45850;BMP180;10739;52.198;20.908;2022-07-15T06:42:13;100182.00;;;22.00
45850;BMP180;10739;52.198;20.908;2022-07-15T06:44:40;100186.00;;;21.30
45850;BMP180;10739;52.198;20.908;2022-07-15T06:47:06;100185.00;;;21.60
45850;BMP180;10739;52.198;20.908;2022-07-15T06:49:35;100182.00;;;21.90
45850;BMP180;10739;52.198;20.908;2022-07-15T06:52:02;100190.00;;;21.50
45850;BMP180;10739;52.198;20.908;2022-07-15T06:54:29;100191.00;;;21.70
45850;BMP180;10739;52.198;20.908;2022-07-15T06:56:55;100200.00;;;22.00
45850;BMP180;10739;52.198;20.908;2022-07-15T06:59:21;100203.00;;;21.40
45850;BMP180;10739;52.198;20.908;2022-07-15T07:01:47;100193.00;;;21.50
45850;BMP180;10739;52.198;20.908;2022-07-15T07:04:13;100202.00;;;21.40
45850;BMP180;10739;52.198;20.908;2022-07-15T07:06:39;100207.00;;;20.90
45850;BMP180;10739;52.198;20.908;2022-07-15T07:09:06;100199.00;;;20.60
45850;BMP180;10739;52.198;20.908;2022-07-15T07:11:32;100199.00;;;20.20
45850;BMP180;10739;52.198;20.908;2022-07-15T07:13:59;100213.00;;;20.50
45850;BMP180;10739;52.198;20.908;2022-07-15T07:16:26;100195.00;;;21.60
45850;BMP180;10739;52.198;20.908;2022-07-15T07:18:52;100194.00;;;21.60
45850;BMP180;10739;52.198;20.908;2022-07-15T07:21:20;100198.00;;;21.80
45850;BMP180;10739;52.198;20.908;2022-07-15T07:23:46;100190.00;;;22.30
45850;BMP180;10739;52.198;20.908;2022-07-15T07:26:14;100200.00;;;22.10
45850;BMP180;10739;52.198;20.908;2022-07-15T07:28:41;100192.00;;;22.30
45850;BMP180;10739;52.198;20.908;2022-07-15T07:31:12;100208.00;;;22.30
45850;BMP180;10739;52.198;20.908;2022-07-15T07:33:40;100200.00;;;22.30
45850;BMP180;10739;52.198;20.908;2022-07-15T07:36:07;100215.00;;;22.90
45850;BMP180;10739;52.198;20.908;2022-07-15T07:38:35;100216.00;;;22.20
45850;BMP180;10739;52.198;20.908;2022-07-15T07:41:02;100221.00;;;21.30
45850;BMP180;10739;52.198;20.908;2022-07-15T07:43:28;100211.00;;;20.90
45850;BMP180;10739;52.198;20.908;2022-07-15T07:45:54;100218.00;;;21.10
45850;BMP180;10739;52.198;20.908;2022-07-15T07:48:21;100217.00;;;21.30
45850;BMP180;10739;52.198;20.908;2022-07-15T07:50:49;100222.00;;;21.10
45850;BMP180;10739;52.198;20.908;2022-07-15T07:53:17;100230.00;;;21.00
45850;BMP180;10739;52.198;20.908;2022-07-15T07:55:43;100219.00;;;21.40
45850;BMP180;10739;52.198;20.908;2022-07-15T07:58:10;100239.00;;;22.00
45850;BMP180;10739;52.198;20.908;2022-07-15T08:00:38;100236.00;;;22.00
45850;BMP180;10739;52.198;20.908;2022-07-15T08:03:04;100236.00;;;21.60
45850;BMP180;10739;52.198;20.908;2022-07-15T08:05:30;100246.00;;;22.00
45850;BMP180;10739;52.198;20.908;2022-07-15T08:08:12;100248.00;;;21.40
45850;BMP180;10739;52.198;20.908;2022-07-15T08:10:42;100239.00;;;21.60
45850;BMP180;10739;52.198;20.908;2022-07-15T08:13:08;100249.00;;;20.30
45850;BMP180;10739;52.198;20.908;2022-07-15T08:15:34;100243.00;;;20.90
45850;BMP180;10739;52.198;20.908;2022-07-15T08:18:01;100240.00;;;21.10
45850;BMP180;10739;52.198;20.908;2022-07-15T08:20:28;100251.00;;;20.60
45850;BMP180;10739;52.198;20.908;2022-07-15T08:22:55;100252.00;;;21.70
45850;BMP180;10739;52.198;20.908;2022-07-15T08:25:30;100245.00;;;22.40
45850;BMP180;10739;52.198;20.908;2022-07-15T08:27:57;100240.00;;;22.30
45850;BMP180;10739;52.198;20.908;2022-07-15T08:30:28;100254.00;;;22.60
45850;BMP180;10739;52.198;20.908;2022-07-15T08:32:56;100247.00;;;22.10
45850;BMP180;10739;52.198;20.908;2022-07-15T08:35:24;100250.00;;;21.90
45850;BMP180;10739;52.198;20.908;2022-07-15T08:37:50;100257.00;;;21.70
45850;BMP180;10739;52.198;20.908;2022-07-15T08:40:17;100248.00;;;21.80
45850;BMP180;10739;52.198;20.908;2022-07-15T08:42:44;100239.00;;;21.90
45850;BMP180;10739;52.198;20.908;2022-07-15T08:45:15;100258.00;;;22.90
45850;BMP180;10739;52.198;20.908;2022-07-15T08:47:45;100256.00;;;23.10
45850;BMP180;10739;52.198;20.908;2022-07-15T08:50:15;100251.00;;;22.30
45850;BMP180;10739;52.198;20.908;2022-07-15T08:52:44;100257.00;;;22.30
45850;BMP180;10739;52.198;20.908;2022-07-15T08:55:13;100268.00;;;22.00
45850;BMP180;10739;52.198;20.908;2022-07-15T08:57:39;100260.00;;;22.20
45850;BMP180;10739;52.198;20.908;2022-07-15T09:00:06;100261.00;;;22.10
45850;BMP180;10739;52.198;20.908;2022-07-15T09:02:38;100263.00;;;22.20
45850;BMP180;10739;52.198;20.908;2022-07-15T09:05:28;100257.00;;;22.90
45850;BMP180;10739;52.198;20.908;2022-07-15T09:10:55;100271.00;;;23.60
45850;BMP180;10739;52.198;20.908;2022-07-15T09:16:01;100260.00;;;23.50
45850;BMP180;10739;52.198;20.908;2022-07-15T09:18:38;100266.00;;;22.80
45850;BMP180;10739;52.198;20.908;2022-07-15T09:21:25;100265.00;;;23.00
45850;BMP180;10739;52.198;20.908;2022-07-15T09:23:54;100274.00;;;22.80
45850;BMP180;10739;52.198;20.908;2022-07-15T09:26:34;100270.00;;;23.00
45850;BMP180;10739;52.198;20.908;2022-07-15T09:29:04;100263.00;;;22.20
45850;BMP180;10739;52.198;20.908;2022-07-15T09:31:59;100264.00;;;22.60
45850;BMP180;10739;52.198;20.908;2022-07-15T09:35:04;100275.00;;;22.60
45850;BMP180;10739;52.198;20.908;2022-07-15T09:37:30;100275.00;;;23.20
45850;BMP180;10739;52.198;20.908;2022-07-15T09:39:57;100274.00;;;22.80
45850;BMP180;10739;52.198;20.908;2022-07-15T09:42:24;100267.00;;;22.30
45850;BMP180;10739;52.198;20.908;2022-07-15T09:44:51;100279.00;;;23.10
45850;BMP180;10739;52.198;20.908;2022-07-15T09:47:19;100274.00;;;23.00
45850;BMP180;10739;52.198;20.908;2022-07-15T09:49:46;100281.00;;;23.20
45850;BMP180;10739;52.198;20.908;2022-07-15T09:52:14;100291.00;;;22.00
45850;BMP180;10739;52.198;20.908;2022-07-15T09:54:43;100278.00;;;22.30
45850;BMP180;10739;52.198;20.908;2022-07-15T09:57:17;100283.00;;;23.20
45850;BMP180;10739;52.198;20.908;2022-07-15T09:59:48;100273.00;;;24.40
45850;BMP180;10739;52.198;20.908;2022-07-15T10:02:15;100272.00;;;24.30
45850;BMP180;10739;52.198;20.908;2022-07-15T10:04:41;100272.00;;;25.10
45850;BMP180;10739;52.198;20.908;2022-07-15T10:07:12;100276.00;;;24.10
45850;BMP180;10739;52.198;20.908;2022-07-15T10:09:40;100274.00;;;24.20
45850;BMP180;10739;52.198;20.908;2022-07-15T10:12:20;100283.00;;;24.10
45850;BMP180;10739;52.198;20.908;2022-07-15T10:15:46;100298.00;;;22.90
45850;BMP180;10739;52.198;20.908;2022-07-15T10:21:20;100306.00;;;21.80
45850;BMP180;10739;52.198;20.908;2022-07-15T10:24:34;100304.00;;;22.90
45850;BMP180;10739;52.198;20.908;2022-07-15T10:27:44;100302.00;;;24.90
45850;BMP180;10739;52.198;20.908;2022-07-15T10:30:18;100284.00;;;25.20
45850;BMP180;10739;52.198;20.908;2022-07-15T10:35:44;100288.00;;;24.40
45850;BMP180;10739;52.198;20.908;2022-07-15T10:38:36;100292.00;;;23.60
45850;BMP180;10739;52.198;20.908;2022-07-15T10:43:51;100315.00;;;23.60
45850;BMP180;10739;52.198;20.908;2022-07-15T10:54:10;100305.00;;;22.60
45850;BMP180;10739;52.198;20.908;2022-07-15T10:56:46;100310.00;;;24.00
45850;BMP180;10739;52.198;20.908;2022-07-15T10:59:23;100309.00;;;25.40
45850;BMP180;10739;52.198;20.908;2022-07-15T11:02:14;100310.00;;;25.00
45850;BMP180;10739;52.198;20.908;2022-07-15T11:04:42;100313.00;;;23.80
45850;BMP180;10739;52.198;20.908;2022-07-15T11:15:10;100331.00;;;23.30
45850;BMP180;10739;52.198;20.908;2022-07-15T11:17:40;100320.00;;;22.90
45850;BMP180;10739;52.198;20.908;2022-07-15T11:22:45;100303.00;;;23.80
45850;BMP180;10739;52.198;20.908;2022-07-15T11:33:17;100313.00;;;23.80
45850;BMP180;10739;52.198;20.908;2022-07-15T11:35:57;100323.00;;;23.60
45850;BMP180;10739;52.198;20.908;2022-07-15T11:38:30;100316.00;;;24.50
45850;BMP180;10739;52.198;20.908;2022-07-15T11:41:00;100335.00;;;23.40
45850;BMP180;10739;52.198;20.908;2022-07-15T11:43:57;100321.00;;;23.30
45850;BMP180;10739;52.198;20.908;2022-07-15T11:46:46;100325.00;;;23.50
45850;BMP180;10739;52.198;20.908;2022-07-15T11:49:32;100326.00;;;25.90
45850;BMP180;10739;52.198;20.908;2022-07-15T11:52:04;100330.00;;;26.90
45850;BMP180;10739;52.198;20.908;2022-07-15T11:54:35;100343.00;;;24.30
45850;BMP180;10739;52.198;20.908;2022-07-15T11:57:04;100345.00;;;24.30
45850;BMP180;10739;52.198;20.908;2022-07-15T11:59:33;100350.00;;;23.20
45850;BMP180;10739;52.198;20.908;2022-07-15T12:02:07;100339.00;;;22.60
45850;BMP180;10739;52.198;20.908;2022-07-15T12:04:35;100343.00;;;23.10
45850;BMP180;10739;52.198;20.908;2022-07-15T12:07:02;100353.00;;;22.80
45850;BMP180;10739;52.198;20.908;2022-07-15T12:09:47;100350.00;;;21.90
45850;BMP180;10739;52.198;20.908;2022-07-15T12:12:15;100366.00;;;22.60
45850;BMP180;10739;52.198;20.908;2022-07-15T12:14:45;100342.00;;;23.80
45850;BMP180;10739;52.198;20.908;2022-07-15T12:17:13;100339.00;;;25.10
45850;BMP180;10739;52.198;20.908;2022-07-15T12:19:39;100339.00;;;26.90
45850;BMP180;10739;52.198;20.908;2022-07-15T12:22:08;100340.00;;;26.00
45850;BMP180;10739;52.198;20.908;2022-07-15T12:24:44;100348.00;;;25.60
45850;BMP180;10739;52.198;20.908;2022-07-15T12:27:12;100343.00;;;24.70
45850;BMP180;10739;52.198;20.908;2022-07-15T12:29:41;100346.00;;;25.00
45850;BMP180;10739;52.198;20.908;2022-07-15T12:32:13;100345.00;;;26.50
45850;BMP180;10739;52.198;20.908;2022-07-15T12:34:59;100340.00;;;26.00
45850;BMP180;10739;52.198;20.908;2022-07-15T12:40:10;100342.00;;;26.70
45850;BMP180;10739;52.198;20.908;2022-07-15T12:42:45;100338.00;;;27.30
45850;BMP180;10739;52.198;20.908;2022-07-15T12:45:22;100367.00;;;28.50
45850;BMP180;10739;52.198;20.908;2022-07-15T12:48:08;100367.00;;;26.90
45850;BMP180;10739;52.198;20.908;2022-07-15T12:53:20;100357.00;;;27.40
45850;BMP180;10739;52.198;20.908;2022-07-15T12:55:51;100359.00;;;26.80
45850;BMP180;10739;52.198;20.908;2022-07-15T12:58:28;100355.00;;;27.20
45850;BMP180;10739;52.198;20.908;2022-07-15T13:01:14;100353.00;;;27.30
45850;BMP180;10739;52.198;20.908;2022-07-15T13:03:41;100358.00;;;28.70
45850;BMP180;10739;52.198;20.908;2022-07-15T13:06:08;100355.00;;;28.80
45850;BMP180;10739;52.198;20.908;2022-07-15T13:08:38;100355.00;;;26.90
45850;BMP180;10739;52.198;20.908;2022-07-15T13:11:07;100360.00;;;27.70
45850;BMP180;10739;52.198;20.908;2022-07-15T13:13:38;100361.00;;;28.10
45850;BMP180;10739;52.198;20.908;2022-07-15T13:16:06;100375.00;;;27.10
45850;BMP180;10739;52.198;20.908;2022-07-15T13:18:34;100376.00;;;28.20
45850;BMP180;10739;52.198;20.908;2022-07-15T13:21:00;100379.00;;;28.10
45850;BMP180;10739;52.198;20.908;2022-07-15T13:23:28;100386.00;;;26.50
45850;BMP180;10739;52.198;20.908;2022-07-15T13:25:54;100386.00;;;25.40
45850;BMP180;10739;52.198;20.908;2022-07-15T13:28:22;100378.00;;;26.70
45850;BMP180;10739;52.198;20.908;2022-07-15T13:30:48;100368.00;;;28.00
45850;BMP180;10739;52.198;20.908;2022-07-15T13:33:16;100378.00;;;28.30
45850;BMP180;10739;52.198;20.908;2022-07-15T13:35:42;100376.00;;;27.00
45850;BMP180;10739;52.198;20.908;2022-07-15T13:38:08;100377.00;;;28.10
45850;BMP180;10739;52.198;20.908;2022-07-15T13:40:35;100379.00;;;27.80
45850;BMP180;10739;52.198;20.908;2022-07-15T13:43:01;100394.00;;;27.30
45850;BMP180;10739;52.198;20.908;2022-07-15T13:45:27;100378.00;;;27.30
45850;BMP180;10739;52.198;20.908;2022-07-15T13:47:53;100390.00;;;27.70
45850;BMP180;10739;52.198;20.908;2022-07-15T13:50:19;100376.00;;;26.70
45850;BMP180;10739;52.198;20.908;2022-07-15T13:53:04;100377.00;;;26.80
45850;BMP180;10739;52.198;20.908;2022-07-15T13:55:31;100399.00;;;27.20
45850;BMP180;10739;52.198;20.908;2022-07-15T13:57:57;100389.00;;;25.70
45850;BMP180;10739;52.198;20.908;2022-07-15T14:00:25;100397.00;;;25.30
45850;BMP180;10739;52.198;20.908;2022-07-15T14:02:54;100397.00;;;26.10
45850;BMP180;10739;52.198;20.908;2022-07-15T14:05:21;100392.00;;;25.30
45850;BMP180;10739;52.198;20.908;2022-07-15T14:07:47;100382.00;;;24.90
45850;BMP180;10739;52.198;20.908;2022-07-15T14:10:14;100395.00;;;26.70
45850;BMP180;10739;52.198;20.908;2022-07-15T14:12:40;100391.00;;;26.70
45850;BMP180;10739;52.198;20.908;2022-07-15T14:15:08;100399.00;;;26.70
45850;BMP180;10739;52.198;20.908;2022-07-15T14:17:34;100394.00;;;27.40
45850;BMP180;10739;52.198;20.908;2022-07-15T14:20:00;100394.00;;;27.60
45850;BMP180;10739;52.198;20.908;2022-07-15T14:22:27;100393.00;;;26.70
45850;BMP180;10739;52.198;20.908;2022-07-15T14:24:55;100397.00;;;27.30
45850;BMP180;10739;52.198;20.908;2022-07-15T14:27:21;100402.00;;;26.80
45850;BMP180;10739;52.198;20.908;2022-07-15T14:29:47;100395.00;;;26.50
45850;BMP180;10739;52.198;20.908;2022-07-15T14:32:13;100399.00;;;27.00
45850;BMP180;10739;52.198;20.908;2022-07-15T14:34:40;100404.00;;;27.20
45850;BMP180;10739;52.198;20.908;2022-07-15T14:37:06;100411.00;;;27.50
45850;BMP180;10739;52.198;20.908;2022-07-15T14:39:32;100408.00;;;26.80
45850;BMP180;10739;52.198;20.908;2022-07-15T14:41:58;100415.00;;;26.30
45850;BMP180;10739;52.198;20.908;2022-07-15T14:44:24;100417.00;;;25.70
45850;BMP180;10739;52.198;20.908;2022-07-15T14:46:50;100403.00;;;26.20
45850;BMP180;10739;52.198;20.908;2022-07-15T14:49:17;100417.00;;;26.00
45850;BMP180;10739;52.198;20.908;2022-07-15T14:51:43;100411.00;;;26.50
45850;BMP180;10739;52.198;20.908;2022-07-15T14:54:09;100419.00;;;26.80
45850;BMP180;10739;52.198;20.908;2022-07-15T14:56:36;100430.00;;;25.30
45850;BMP180;10739;52.198;20.908;2022-07-15T14:59:02;100431.00;;;24.70
45850;BMP180;10739;52.198;20.908;2022-07-15T15:01:29;100429.00;;;26.50
45850;BMP180;10739;52.198;20.908;2022-07-15T15:03:56;100426.00;;;27.00
45850;BMP180;10739;52.198;20.908;2022-07-15T15:06:22;100422.00;;;27.30
45850;BMP180;10739;52.198;20.908;2022-07-15T15:08:48;100424.00;;;25.90
45850;BMP180;10739;52.198;20.908;2022-07-15T15:11:14;100427.00;;;24.80
45850;BMP180;10739;52.198;20.908;2022-07-15T15:13:40;100436.00;;;24.60
45850;BMP180;10739;52.198;20.908;2022-07-15T15:16:08;100431.00;;;23.60